sensor_id;sensor_type;location;lat;lon;timestamp;pressure;altitude;pressure_sealevel;temperature
65738;BMP280;52478;51.844;6.582;2023-08-20T01:00:53;101808.66;;;25.09
65738;BMP280;52478;51.844;6.582;2023-08-20T01:03:20;101807.84;;;24.71
65738;BMP280;52478;51.844;6.582;2023-08-20T01:05:51;101815.00;;;24.43
65738;BMP280;52478;51.844;6.582;2023-08-20T01:08:27;101812.19;;;24.43
65738;BMP280;52478;51.844;6.582;2023-08-20T01:10:58;101811.28;;;24.59
65738;BMP280;52478;51.844;6.582;2023-08-20T01:13:25;101804.03;;;24.69
65738;BMP280;52478;51.844;6.582;2023-08-20T01:15:53;101806.16;;;24.63
65738;BMP280;52478;51.844;6.582;2023-08-20T01:18:20;101804.19;;;24.58
65738;BMP280;52478;51.844;6.582;2023-08-20T01:20:52;101817.34;;;24.63
65738;BMP280;52478;51.844;6.582;2023-08-20T01:23:48;101826.31;;;24.80
65738;BMP280;52478;51.844;6.582;2023-08-20T01:26:30;101827.72;;;24.92
65738;BMP280;52478;51.844;6.582;2023-08-20T01:28:59;101825.94;;;24.89
65738;BMP280;52478;51.844;6.582;2023-08-20T01:31:26;101813.91;;;24.94
65738;BMP280;52478;51.844;6.582;2023-08-20T01:33:54;101822.56;;;24.96
65738;BMP280;52478;51.844;6.582;2023-08-20T01:36:21;101822.78;;;24.98
65738;BMP280;52478;51.844;6.582;2023-08-20T01:38:48;101828.16;;;24.96
65738;BMP280;52478;51.844;6.582;2023-08-20T01:41:14;101819.75;;;24.96
65738;BMP280;52478;51.844;6.582;2023-08-20T01:43:41;101832.47;;;24.97
65738;BMP280;52478;51.844;6.582;2023-08-20T01:46:09;101827.56;;;25.03
65738;BMP280;52478;51.844;6.582;2023-08-20T01:48:37;101825.31;;;25.01
65738;BMP280;52478;51.844;6.582;2023-08-20T01:51:04;101826.38;;;24.98
65738;BMP280;52478;51.844;6.582;2023-08-20T01:53:31;101827.25;;;24.88
65738;BMP280;52478;51.844;6.582;2023-08-20T01:55:57;101823.78;;;24.82
65738;BMP280;52478;51.844;6.582;2023-08-20T01:58:24;101835.13;;;24.89
65738;BMP280;52478;51.844;6.582;2023-08-20T02:00:51;101832.44;;;24.78
65738;BMP280;52478;51.844;6.582;2023-08-20T02:03:19;101852.16;;;24.91
65738;BMP280;52478;51.844;6.582;2023-08-20T02:05:46;101835.41;;;24.86
65738;BMP280;52478;51.844;6.582;2023-08-20T02:08:12;101846.19;;;24.82
65738;BMP280;52478;51.844;6.582;2023-08-20T02:10:39;101855.22;;;24.69
65738;BMP280;52478;51.844;6.582;2023-08-20T02:13:05;101856.91;;;24.78
65738;BMP280;52478;51.844;6.582;2023-08-20T02:15:32;101860.81;;;24.69
65738;BMP280;52478;51.844;6.582;2023-08-20T02:17:58;101865.34;;;24.72
65738;BMP280;52478;51.844;6.582;2023-08-20T02:20:27;101876.25;;;24.76
65738;BMP280;52478;51.844;6.582;2023-08-20T02:22:54;101877.88;;;24.66
65738;BMP280;52478;51.844;6.582;2023-08-20T02:25:21;101889.84;;;24.72
65738;BMP280;52478;51.844;6.582;2023-08-20T02:27:47;101883.88;;;24.81
65738;BMP280;52478;51.844;6.582;2023-08-20T02:30:14;101876.25;;;24.76
65738;BMP280;52478;51.844;6.582;2023-08-20T02:32:40;101883.16;;;24.75
65738;BMP280;52478;51.844;6.582;2023-08-20T02:35:07;101890.81;;;24.74
65738;BMP280;52478;51.844;6.582;2023-08-20T02:37:35;101890.03;;;24.74
65738;BMP280;52478;51.844;6.582;2023-08-20T02:40:03;101889.56;;;24.70
65738;BMP280;52478;51.844;6.582;2023-08-20T02:42:31;101886.63;;;24.57
65738;BMP280;52478;51.844;6.582;2023-08-20T02:44:57;101887.44;;;24.52
65738;BMP280;52478;51.844;6.582;2023-08-20T02:47:24;101881.88;;;24.46
65738;BMP280;52478;51.844;6.582;2023-08-20T02:49:51;101890.72;;;24.56
65738;BMP280;52478;51.844;6.582;2023-08-20T02:52:17;101890.16;;;24.63
65738;BMP280;52478;51.844;6.582;2023-08-20T02:54:45;101889.09;;;24.66
65738;BMP280;52478;51.844;6.582;2023-08-20T02:57:11;101901.03;;;24.72
65738;BMP280;52478;51.844;6.582;2023-08-20T02:59:38;101891.09;;;24.71
65738;BMP280;52478;51.844;6.582;2023-08-20T03:02:04;101889.00;;;24.77
65738;BMP280;52478;51.844;6.582;2023-08-20T03:04:31;101892.00;;;24.79
65738;BMP280;52478;51.844;6.582;2023-08-20T03:06:57;101889.75;;;24.77
65738;BMP280;52478;51.844;6.582;2023-08-20T03:09:24;101894.81;;;24.79
65738;BMP280;52478;51.844;6.582;2023-08-20T03:11:52;101893.06;;;24.76
65738;BMP280;52478;51.844;6.582;2023-08-20T03:14:18;101889.47;;;24.81
65738;BMP280;52478;51.844;6.582;2023-08-20T03:16:44;101890.22;;;24.81
65738;BMP280;52478;51.844;6.582;2023-08-20T03:19:11;101883.91;;;24.75
65738;BMP280;52478;51.844;6.582;2023-08-20T03:21:37;101875.91;;;24.61
65738;BMP280;52478;51.844;6.582;2023-08-20T03:24:05;101877.88;;;24.66
65738;BMP280;52478;51.844;6.582;2023-08-20T03:26:32;101885.09;;;24.61
65738;BMP280;52478;51.844;6.582;2023-08-20T03:29:00;101880.00;;;24.60
65738;BMP280;52478;51.844;6.582;2023-08-20T03:31:26;101873.81;;;24.67
65738;BMP280;52478;51.844;6.582;2023-08-20T03:33:53;101865.63;;;24.45
65738;BMP280;52478;51.844;6.582;2023-08-20T03:36:19;101868.97;;;24.38
65738;BMP280;52478;51.844;6.582;2023-08-20T03:38:46;101865.19;;;24.35
65738;BMP280;52478;51.844;6.582;2023-08-20T03:41:12;101856.84;;;24.30
65738;BMP280;52478;51.844;6.582;2023-08-20T03:43:39;101853.69;;;24.39
65738;BMP280;52478;51.844;6.582;2023-08-20T03:46:06;101839.69;;;24.44
65738;BMP280;52478;51.844;6.582;2023-08-20T03:48:33;101839.34;;;24.53
65738;BMP280;52478;51.844;6.582;2023-08-20T03:50:59;101842.31;;;24.61
65738;BMP280;52478;51.844;6.582;2023-08-20T03:53:26;101848.69;;;24.61
65738;BMP280;52478;51.844;6.582;2023-08-20T03:55:52;101853.03;;;24.57
65738;BMP280;52478;51.844;6.582;2023-08-20T03:58:19;101859.78;;;24.14
65738;BMP280;52478;51.844;6.582;2023-08-20T04:00:45;101860.63;;;24.03
65738;BMP280;52478;51.844;6.582;2023-08-20T04:03:13;101867.81;;;23.93
65738;BMP280;52478;51.844;6.582;2023-08-20T04:05:40;101861.75;;;23.89
65738;BMP280;52478;51.844;6.582;2023-08-20T04:08:06;101855.69;;;23.85
65738;BMP280;52478;51.844;6.582;2023-08-20T04:10:33;101862.31;;;23.82
65738;BMP280;52478;51.844;6.582;2023-08-20T04:12:59;101859.03;;;23.78
65738;BMP280;52478;51.844;6.582;2023-08-20T04:15:26;101869.97;;;23.76
65738;BMP280;52478;51.844;6.582;2023-08-20T04:17:52;101873.81;;;23.68
65738;BMP280;52478;51.844;6.582;2023-08-20T04:20:20;101869.47;;;23.72
65738;BMP280;52478;51.844;6.582;2023-08-20T04:22:48;101869.97;;;23.76
65738;BMP280;52478;51.844;6.582;2023-08-20T04:25:14;101872.81;;;23.71
65738;BMP280;52478;51.844;6.582;2023-08-20T04:27:41;101874.81;;;23.70
65738;BMP280;52478;51.844;6.582;2023-08-20T04:30:08;101871.31;;;23.64
65738;BMP280;52478;51.844;6.582;2023-08-20T04:32:35;101874.09;;;23.64
65738;BMP280;52478;51.844;6.582;2023-08-20T04:35:01;101872.63;;;23.52
65738;BMP280;52478;51.844;6.582;2023-08-20T04:37:29;101867.91;;;23.31
65738;BMP280;52478;51.844;6.582;2023-08-20T04:39:56;101879.38;;;23.17
65738;BMP280;52478;51.844;6.582;2023-08-20T04:42:22;101892.09;;;23.12
65738;BMP280;52478;51.844;6.582;2023-08-20T04:44:49;101895.41;;;23.05
65738;BMP280;52478;51.844;6.582;2023-08-20T04:47:15;101887.28;;;23.13
65738;BMP280;52478;51.844;6.582;2023-08-20T04:49:42;101888.75;;;23.19
65738;BMP280;52478;51.844;6.582;2023-08-20T04:52:08;101889.50;;;23.30
65738;BMP280;52478;51.844;6.582;2023-08-20T04:54:36;101891.03;;;23.31
65738;BMP280;52478;51.844;6.582;2023-08-20T04:57:03;101891.81;;;23.16
65738;BMP280;52478;51.844;6.582;2023-08-20T04:59:29;101888.81;;;23.14
65738;BMP280;52478;51.844;6.582;2023-08-20T05:01:56;101884.38;;;23.34
65738;BMP280;52478;51.844;6.582;2023-08-20T05:04:23;101886.47;;;23.28
65738;BMP280;52478;51.844;6.582;2023-08-20T05:06:49;101887.47;;;23.36
65738;BMP280;52478;51.844;6.582;2023-08-20T05:09:16;101891.75;;;23.43
65738;BMP280;52478;51.844;6.582;2023-08-20T05:11:44;101891.53;;;23.35
65738;BMP280;52478;51.844;6.582;2023-08-20T05:14:10;101885.88;;;23.46
65738;BMP280;52478;51.844;6.582;2023-08-20T05:16:37;101888.19;;;23.42
65738;BMP280;52478;51.844;6.582;2023-08-20T05:19:03;101899.03;;;23.62
65738;BMP280;52478;51.844;6.582;2023-08-20T05:21:30;101901.56;;;23.60
65738;BMP280;52478;51.844;6.582;2023-08-20T05:23:56;101896.97;;;23.68
65738;BMP280;52478;51.844;6.582;2023-08-20T05:26:22;101901.50;;;23.71
65738;BMP280;52478;51.844;6.582;2023-08-20T05:28:50;101900.66;;;23.87
65738;BMP280;52478;51.844;6.582;2023-08-20T05:31:17;101893.53;;;23.86
65738;BMP280;52478;51.844;6.582;2023-08-20T05:33:43;101892.19;;;23.98
65738;BMP280;52478;51.844;6.582;2023-08-20T05:36:10;101898.53;;;24.04
65738;BMP280;52478;51.844;6.582;2023-08-20T05:38:36;101900.00;;;24.11
65738;BMP280;52478;51.844;6.582;2023-08-20T05:41:03;101901.69;;;24.24
65738;BMP280;52478;51.844;6.582;2023-08-20T05:43:29;101899.50;;;24.41
65738;BMP280;52478;51.844;6.582;2023-08-20T05:45:57;101890.75;;;24.50
65738;BMP280;52478;51.844;6.582;2023-08-20T05:48:23;101900.56;;;24.62
65738;BMP280;52478;51.844;6.582;2023-08-20T05:50:50;101899.47;;;24.71
65738;BMP280;52478;51.844;6.582;2023-08-20T05:53:16;101906.00;;;24.79
65738;BMP280;52478;51.844;6.582;2023-08-20T05:55:43;101905.22;;;24.84
65738;BMP280;52478;51.844;6.582;2023-08-20T05:58:09;101908.72;;;24.90
65738;BMP280;52478;51.844;6.582;2023-08-20T06:00:36;101906.91;;;24.92
65738;BMP280;52478;51.844;6.582;2023-08-20T06:03:04;101908.13;;;24.97
65738;BMP280;52478;51.844;6.582;2023-08-20T06:05:32;101908.59;;;25.01
65738;BMP280;52478;51.844;6.582;2023-08-20T06:07:59;101912.38;;;25.03
65738;BMP280;52478;51.844;6.582;2023-08-20T06:10:25;101917.47;;;25.05
65738;BMP280;52478;51.844;6.582;2023-08-20T06:12:52;101916.41;;;25.08
65738;BMP280;52478;51.844;6.582;2023-08-20T06:15:19;101922.25;;;25.10
65738;BMP280;52478;51.844;6.582;2023-08-20T06:17:45;101914.31;;;25.14
65738;BMP280;52478;51.844;6.582;2023-08-20T06:20:13;101914.53;;;25.15
65738;BMP280;52478;51.844;6.582;2023-08-20T06:22:40;101920.59;;;25.19
65738;BMP280;52478;51.844;6.582;2023-08-20T06:25:07;101914.19;;;25.24
65738;BMP280;52478;51.844;6.582;2023-08-20T06:27:33;101911.63;;;25.26
65738;BMP280;52478;51.844;6.582;2023-08-20T06:30:00;101912.59;;;25.29
65738;BMP280;52478;51.844;6.582;2023-08-20T06:32:26;101911.53;;;25.32
65738;BMP280;52478;51.844;6.582;2023-08-20T06:34:53;101914.31;;;25.32
65738;BMP280;52478;51.844;6.582;2023-08-20T06:37:21;101917.91;;;25.32
65738;BMP280;52478;51.844;6.582;2023-08-20T06:39:47;101918.38;;;25.36
65738;BMP280;52478;51.844;6.582;2023-08-20T06:42:14;101919.81;;;25.43
65738;BMP280;52478;51.844;6.582;2023-08-20T06:44:40;101913.91;;;25.46
65738;BMP280;52478;51.844;6.582;2023-08-20T06:47:07;101924.28;;;25.51
65738;BMP280;52478;51.844;6.582;2023-08-20T06:49:33;101923.25;;;25.54
65738;BMP280;52478;51.844;6.582;2023-08-20T06:52:00;101918.31;;;25.60
65738;BMP280;52478;51.844;6.582;2023-08-20T06:54:27;101915.97;;;25.64
65738;BMP280;52478;51.844;6.582;2023-08-20T06:56:54;101922.03;;;25.68
65738;BMP280;52478;51.844;6.582;2023-08-20T06:59:20;101921.72;;;25.72
65738;BMP280;52478;51.844;6.582;2023-08-20T07:01:48;101921.41;;;25.75
65738;BMP280;52478;51.844;6.582;2023-08-20T07:04:14;101925.97;;;25.78
65738;BMP280;52478;51.844;6.582;2023-08-20T07:06:41;101923.63;;;25.82
65738;BMP280;52478;51.844;6.582;2023-08-20T07:09:07;101926.88;;;25.86
65738;BMP280;52478;51.844;6.582;2023-08-20T07:11:36;101925.78;;;25.89
65738;BMP280;52478;51.844;6.582;2023-08-20T07:14:03;101920.63;;;25.93
65738;BMP280;52478;51.844;6.582;2023-08-20T07:16:29;101923.69;;;25.95
65738;BMP280;52478;51.844;6.582;2023-08-20T07:18:56;101926.38;;;26.01
65738;BMP280;52478;51.844;6.582;2023-08-20T07:21:22;101930.16;;;26.03
65738;BMP280;52478;51.844;6.582;2023-08-20T07:23:49;101931.94;;;26.06
65738;BMP280;52478;51.844;6.582;2023-08-20T07:26:15;101930.88;;;26.09
65738;BMP280;52478;51.844;6.582;2023-08-20T07:28:43;101929.78;;;26.12
65738;BMP280;52478;51.844;6.582;2023-08-20T07:31:26;101929.50;;;26.15
65738;BMP280;52478;51.844;6.582;2023-08-20T07:33:53;101926.88;;;26.17
65738;BMP280;52478;51.844;6.582;2023-08-20T07:36:21;101926.56;;;26.21
65738;BMP280;52478;51.844;6.582;2023-08-20T07:38:48;101940.31;;;26.24
65738;BMP280;52478;51.844;6.582;2023-08-20T07:41:14;101944.09;;;26.27
65738;BMP280;52478;51.844;6.582;2023-08-20T07:43:41;101931.78;;;26.30
65738;BMP280;52478;51.844;6.582;2023-08-20T07:46:09;101924.91;;;26.31
65738;BMP280;52478;51.844;6.582;2023-08-20T07:48:36;101933.72;;;26.35
65738;BMP280;52478;51.844;6.582;2023-08-20T07:51:02;101931.16;;;26.37
65738;BMP280;52478;51.844;6.582;2023-08-20T07:53:29;101928.56;;;26.39
65738;BMP280;52478;51.844;6.582;2023-08-20T07:55:56;101926.00;;;26.41
65738;BMP280;52478;51.844;6.582;2023-08-20T07:58:22;101930.53;;;26.44
65738;BMP280;52478;51.844;6.582;2023-08-20T08:00:49;101937.13;;;26.46
65738;BMP280;52478;51.844;6.582;2023-08-20T08:03:17;101938.66;;;26.47
65738;BMP280;52478;51.844;6.582;2023-08-20T08:05:46;101943.19;;;26.50
65738;BMP280;52478;51.844;6.582;2023-08-20T08:08:12;101940.59;;;26.52
65738;BMP280;52478;51.844;6.582;2023-08-20T08:10:39;101943.09;;;26.56
65738;BMP280;52478;51.844;6.582;2023-08-20T08:13:05;101947.94;;;26.55
65738;BMP280;52478;51.844;6.582;2023-08-20T08:15:32;101940.47;;;26.58
65738;BMP280;52478;51.844;6.582;2023-08-20T08:17:58;101949.16;;;26.60
65738;BMP280;52478;51.844;6.582;2023-08-20T08:20:26;101944.50;;;26.62
65738;BMP280;52478;51.844;6.582;2023-08-20T08:22:52;101945.47;;;26.65
65738;BMP280;52478;51.844;6.582;2023-08-20T08:25:19;101950.78;;;26.68
65738;BMP280;52478;51.844;6.582;2023-08-20T08:27:45;101956.63;;;26.70
65738;BMP280;52478;51.844;6.582;2023-08-20T08:30:12;101944.88;;;26.72
65738;BMP280;52478;51.844;6.582;2023-08-20T08:32:39;101954.25;;;26.74
65738;BMP280;52478;51.844;6.582;2023-08-20T08:35:07;101950.22;;;26.70
65738;BMP280;52478;51.844;6.582;2023-08-20T08:37:34;101961.28;;;26.68
65738;BMP280;52478;51.844;6.582;2023-08-20T08:40:01;101959.44;;;26.70
65738;BMP280;52478;51.844;6.582;2023-08-20T08:42:30;101957.38;;;26.71
65738;BMP280;52478;51.844;6.582;2023-08-20T08:44:59;101957.81;;;26.75
65738;BMP280;52478;51.844;6.582;2023-08-20T08:47:26;101955.00;;;26.75
65738;BMP280;52478;51.844;6.582;2023-08-20T08:49:54;101975.44;;;26.75
65738;BMP280;52478;51.844;6.582;2023-08-20T08:52:22;101966.69;;;26.79
65738;BMP280;52478;51.844;6.582;2023-08-20T08:54:50;101964.31;;;26.83
65738;BMP280;52478;51.844;6.582;2023-08-20T08:57:17;101970.91;;;26.85
65738;BMP280;52478;51.844;6.582;2023-08-20T08:59:44;101973.94;;;26.87
65738;BMP280;52478;51.844;6.582;2023-08-20T09:02:11;101969.09;;;26.88
65738;BMP280;52478;51.844;6.582;2023-08-20T09:04:38;101974.34;;;26.91
65738;BMP280;52478;51.844;6.582;2023-08-20T09:07:05;101971.03;;;26.92
65738;BMP280;52478;51.844;6.582;2023-08-20T09:09:37;101968.03;;;26.91
65738;BMP280;52478;51.844;6.582;2023-08-20T09:12:12;101973.84;;;26.92
65738;BMP280;52478;51.844;6.582;2023-08-20T09:14:39;101978.94;;;26.94
65738;BMP280;52478;51.844;6.582;2023-08-20T09:17:05;101982.72;;;26.96
65738;BMP280;52478;51.844;6.582;2023-08-20T09:19:35;101978.56;;;26.97
65738;BMP280;52478;51.844;6.582;2023-08-20T09:22:03;101966.25;;;27.00
65738;BMP280;52478;51.844;6.582;2023-08-20T09:24:33;101964.97;;;27.01
65738;BMP280;52478;51.844;6.582;2023-08-20T09:27:03;101968.56;;;27.02
65738;BMP280;52478;51.844;6.582;2023-08-20T09:29:33;101970.81;;;27.03
65738;BMP280;52478;51.844;6.582;2023-08-20T09:32:01;101966.72;;;27.04
65738;BMP280;52478;51.844;6.582;2023-08-20T09:34:36;101968.22;;;27.05
65738;BMP280;52478;51.844;6.582;2023-08-20T09:37:02;101985.28;;;27.07
65738;BMP280;52478;51.844;6.582;2023-08-20T09:39:29;101979.16;;;27.09
65738;BMP280;52478;51.844;6.582;2023-08-20T09:41:56;101976.09;;;27.07
65738;BMP280;52478;51.844;6.582;2023-08-20T09:44:25;101973.84;;;27.05
65738;BMP280;52478;51.844;6.582;2023-08-20T09:46:55;101971.22;;;27.07
65738;BMP280;52478;51.844;6.582;2023-08-20T09:49:22;101977.06;;;27.09
65738;BMP280;52478;51.844;6.582;2023-08-20T09:51:53;101975.78;;;27.10
65738;BMP280;52478;51.844;6.582;2023-08-20T09:54:25;101972.97;;;27.10
65738;BMP280;52478;51.844;6.582;2023-08-20T09:56:58;101978.59;;;27.10
65738;BMP280;52478;51.844;6.582;2023-08-20T09:59:26;101978.84;;;27.12
65738;BMP280;52478;51.844;6.582;2023-08-20T10:01:54;101990.09;;;27.12
65738;BMP280;52478;51.844;6.582;2023-08-20T10:04:22;101985.97;;;27.13
65738;BMP280;52478;51.844;6.582;2023-08-20T10:06:50;101981.06;;;27.14
65738;BMP280;52478;51.844;6.582;2023-08-20T10:09:18;101980.34;;;27.13
65738;BMP280;52478;51.844;6.582;2023-08-20T10:11:45;101980.56;;;27.15
65738;BMP280;52478;51.844;6.582;2023-08-20T10:14:11;101990.47;;;27.16
65738;BMP280;52478;51.844;6.582;2023-08-20T10:16:38;101987.66;;;27.16
65738;BMP280;52478;51.844;6.582;2023-08-20T10:19:07;101984.84;;;27.16
65738;BMP280;52478;51.844;6.582;2023-08-20T10:21:33;101997.66;;;27.17
65738;BMP280;52478;51.844;6.582;2023-08-20T10:24:03;101998.41;;;27.18
65738;BMP280;52478;51.844;6.582;2023-08-20T10:26:29;101992.75;;;27.18
65738;BMP280;52478;51.844;6.582;2023-08-20T10:31:56;102001.97;;;27.18
65738;BMP280;52478;51.844;6.582;2023-08-20T10:34:33;101996.88;;;27.17
65738;BMP280;52478;51.844;6.582;2023-08-20T10:37:02;101994.25;;;27.19
65738;BMP280;52478;51.844;6.582;2023-08-20T10:39:29;102000.66;;;27.19
65738;BMP280;52478;51.844;6.582;2023-08-20T10:42:08;101995.03;;;27.19
65738;BMP280;52478;51.844;6.582;2023-08-20T10:44:59;101995.03;;;27.19
65738;BMP280;52478;51.844;6.582;2023-08-20T10:47:26;101997.31;;;27.21
65738;BMP280;52478;51.844;6.582;2023-08-20T10:49:54;101996.53;;;27.20
65738;BMP280;52478;51.844;6.582;2023-08-20T10:52:22;101984.75;;;27.22
65738;BMP280;52478;51.844;6.582;2023-08-20T10:54:49;101993.19;;;27.22
65738;BMP280;52478;51.844;6.582;2023-08-20T10:57:17;101996.00;;;27.22
65738;BMP280;52478;51.844;6.582;2023-08-20T10:59:56;101996.78;;;27.22
65738;BMP280;52478;51.844;6.582;2023-08-20T11:02:22;101989.84;;;27.23
65738;BMP280;52478;51.844;6.582;2023-08-20T11:04:51;101997.00;;;27.24
65738;BMP280;52478;51.844;6.582;2023-08-20T11:07:20;101994.19;;;27.24
65738;BMP280;52478;51.844;6.582;2023-08-20T11:09:50;101997.72;;;27.25
65738;BMP280;52478;51.844;6.582;2023-08-20T11:12:19;101994.41;;;27.26
65738;BMP280;52478;51.844;6.582;2023-08-20T11:14:46;101994.41;;;27.26
65738;BMP280;52478;51.844;6.582;2023-08-20T11:17:13;101990.28;;;27.27
65738;BMP280;52478;51.844;6.582;2023-08-20T11:19:39;101991.59;;;27.26
65738;BMP280;52478;51.844;6.582;2023-08-20T11:22:06;101990.28;;;27.27
65738;BMP280;52478;51.844;6.582;2023-08-20T11:24:34;101984.66;;;27.27
65738;BMP280;52478;51.844;6.582;2023-08-20T11:27:04;101986.94;;;27.29
65738;BMP280;52478;51.844;6.582;2023-08-20T11:29:30;101985.41;;;27.28
65738;BMP280;52478;51.844;6.582;2023-08-20T11:31:58;101993.28;;;27.29
65738;BMP280;52478;51.844;6.582;2023-08-20T11:34:28;101992.00;;;27.30
65738;BMP280;52478;51.844;6.582;2023-08-20T11:36:54;101989.97;;;27.31
65738;BMP280;52478;51.844;6.582;2023-08-20T11:39:22;101996.31;;;27.31
65738;BMP280;52478;51.844;6.582;2023-08-20T11:41:51;101987.34;;;27.33
65738;BMP280;52478;51.844;6.582;2023-08-20T11:44:21;101999.38;;;27.33
65738;BMP280;52478;51.844;6.582;2023-08-20T11:46:48;101989.97;;;27.31
65738;BMP280;52478;51.844;6.582;2023-08-20T11:49:16;101993.75;;;27.33
65738;BMP280;52478;51.844;6.582;2023-08-20T11:51:44;101989.59;;;27.34
65738;BMP280;52478;51.844;6.582;2023-08-20T11:54:14;101986.59;;;27.32
65738;BMP280;52478;51.844;6.582;2023-08-20T11:56:43;101987.78;;;27.37
65738;BMP280;52478;51.844;6.582;2023-08-20T11:59:12;101984.41;;;27.38
65738;BMP280;52478;51.844;6.582;2023-08-20T12:01:39;101981.59;;;27.38
65738;BMP280;52478;51.844;6.582;2023-08-20T12:04:06;101992.34;;;27.40
65738;BMP280;52478;51.844;6.582;2023-08-20T12:06:34;101987.44;;;27.40
65738;BMP280;52478;51.844;6.582;2023-08-20T12:09:01;101981.28;;;27.42
65738;BMP280;52478;51.844;6.582;2023-08-20T12:11:30;101979.25;;;27.42
65738;BMP280;52478;51.844;6.582;2023-08-20T12:13:58;101975.88;;;27.44
65738;BMP280;52478;51.844;6.582;2023-08-20T12:16:26;101982.28;;;27.44
65738;BMP280;52478;51.844;6.582;2023-08-20T12:18:52;101975.88;;;27.44
65738;BMP280;52478;51.844;6.582;2023-08-20T12:21:19;101981.50;;;27.44
65738;BMP280;52478;51.844;6.582;2023-08-20T12:23:45;101973.28;;;27.46
65738;BMP280;52478;51.844;6.582;2023-08-20T12:26:12;101975.53;;;27.47
65738;BMP280;52478;51.844;6.582;2023-08-20T12:28:38;101969.16;;;27.47
65738;BMP280;52478;51.844;6.582;2023-08-20T12:31:06;101970.69;;;27.48
65738;BMP280;52478;51.844;6.582;2023-08-20T12:33:34;101965.81;;;27.48
65738;BMP280;52478;51.844;6.582;2023-08-20T12:36:01;101959.44;;;27.48
65738;BMP280;52478;51.844;6.582;2023-08-20T12:38:27;101965.81;;;27.48
65738;BMP280;52478;51.844;6.582;2023-08-20T12:40:58;101952.28;;;27.47
65738;BMP280;52478;51.844;6.582;2023-08-20T12:43:25;101948.91;;;27.48
65738;BMP280;52478;51.844;6.582;2023-08-20T12:45:51;101942.00;;;27.49
65738;BMP280;52478;51.844;6.582;2023-08-20T12:48:18;101954.75;;;27.50
65738;BMP280;52478;51.844;6.582;2023-08-20T12:50:46;101940.69;;;27.50
65738;BMP280;52478;51.844;6.582;2023-08-20T12:53:12;101939.19;;;27.49
65738;BMP280;52478;51.844;6.582;2023-08-20T12:55:39;101933.00;;;27.51
65738;BMP280;52478;51.844;6.582;2023-08-20T12:58:05;101936.59;;;27.51
65738;BMP280;52478;51.844;6.582;2023-08-20T13:00:32;101935.25;;;27.52
65738;BMP280;52478;51.844;6.582;2023-08-20T13:02:59;101935.50;;;27.54
65738;BMP280;52478;51.844;6.582;2023-08-20T13:05:26;101930.63;;;27.55
65738;BMP280;52478;51.844;6.582;2023-08-20T13:07:55;101931.38;;;27.55
65738;BMP280;52478;51.844;6.582;2023-08-20T13:10:22;101925.75;;;27.55
65738;BMP280;52478;51.844;6.582;2023-08-20T13:12:51;101920.13;;;27.55
65738;BMP280;52478;51.844;6.582;2023-08-20T13:15:20;101925.75;;;27.55
65738;BMP280;52478;51.844;6.582;2023-08-20T13:17:48;101923.69;;;27.56
65738;BMP280;52478;51.844;6.582;2023-08-20T13:20:15;101929.88;;;27.54
65738;BMP280;52478;51.844;6.582;2023-08-20T13:22:46;101932.13;;;27.56
65738;BMP280;52478;51.844;6.582;2023-08-20T13:25:14;101938.50;;;27.56
65738;BMP280;52478;51.844;6.582;2023-08-20T13:27:41;101939.28;;;27.57
65738;BMP280;52478;51.844;6.582;2023-08-20T13:30:08;101944.13;;;27.56
65738;BMP280;52478;51.844;6.582;2023-08-20T13:32:35;101944.38;;;27.58
65738;BMP280;52478;51.844;6.582;2023-08-20T13:35:01;101942.63;;;27.55
65738;BMP280;52478;51.844;6.582;2023-08-20T13:37:29;101947.19;;;27.58
65738;BMP280;52478;51.844;6.582;2023-08-20T13:39:56;101946.44;;;27.58
65738;BMP280;52478;51.844;6.582;2023-08-20T13:42:24;101951.50;;;27.59
65738;BMP280;52478;51.844;6.582;2023-08-20T13:44:51;101954.31;;;27.59
65738;BMP280;52478;51.844;6.582;2023-08-20T13:47:17;101959.94;;;27.59
65738;BMP280;52478;51.844;6.582;2023-08-20T13:49:44;101957.88;;;27.60
65738;BMP280;52478;51.844;6.582;2023-08-20T13:52:10;101960.69;;;27.60
65738;BMP280;52478;51.844;6.582;2023-08-20T13:54:37;101956.59;;;27.61
65738;BMP280;52478;51.844;6.582;2023-08-20T13:57:04;101954.53;;;27.61
65738;BMP280;52478;51.844;6.582;2023-08-20T13:59:31;101958.63;;;27.60
65738;BMP280;52478;51.844;6.582;2023-08-20T14:01:58;101955.06;;;27.60
65738;BMP280;52478;51.844;6.582;2023-08-20T14:04:25;101953.19;;;27.62
65738;BMP280;52478;51.844;6.582;2023-08-20T14:06:51;101956.00;;;27.62
65738;BMP280;52478;51.844;6.582;2023-08-20T14:09:18;101959.59;;;27.63
65738;BMP280;52478;51.844;6.582;2023-08-20T14:11:45;101964.47;;;27.62
65738;BMP280;52478;51.844;6.582;2023-08-20T14:14:11;101959.59;;;27.63
65738;BMP280;52478;51.844;6.582;2023-08-20T14:16:39;101954.75;;;27.63
65738;BMP280;52478;51.844;6.582;2023-08-20T14:19:06;101953.44;;;27.64
65738;BMP280;52478;51.844;6.582;2023-08-20T14:21:32;101958.84;;;27.62
65738;BMP280;52478;51.844;6.582;2023-08-20T14:23:59;101948.34;;;27.63
65738;BMP280;52478;51.844;6.582;2023-08-20T14:26:25;101944.25;;;27.64
65738;BMP280;52478;51.844;6.582;2023-08-20T14:28:52;101943.50;;;27.63
65738;BMP280;52478;51.844;6.582;2023-08-20T14:31:18;101937.88;;;27.63
65738;BMP280;52478;51.844;6.582;2023-08-20T14:33:46;101939.38;;;27.64
65738;BMP280;52478;51.844;6.582;2023-08-20T14:36:13;101939.38;;;27.64
65738;BMP280;52478;51.844;6.582;2023-08-20T14:38:39;101928.13;;;27.64
65738;BMP280;52478;51.844;6.582;2023-08-20T14:41:05;101935.25;;;27.65
65738;BMP280;52478;51.844;6.582;2023-08-20T14:43:32;101928.84;;;27.65
65738;BMP280;52478;51.844;6.582;2023-08-20T14:45:59;101935.25;;;27.65
65738;BMP280;52478;51.844;6.582;2023-08-20T14:48:26;101929.63;;;27.65
65738;BMP280;52478;51.844;6.582;2023-08-20T14:50:54;101929.63;;;27.65
65738;BMP280;52478;51.844;6.582;2023-08-20T14:53:20;101925.50;;;27.66
65738;BMP280;52478;51.844;6.582;2023-08-20T14:55:47;101936.75;;;27.66
65738;BMP280;52478;51.844;6.582;2023-08-20T14:58:13;101918.34;;;27.65
65738;BMP280;52478;51.844;6.582;2023-08-20T15:00:40;101925.50;;;27.66